DAL2269 KATL-KBOS
Flight info
| Callsign | DAL2269 |
|---|---|
| Flight time | 2h 14m |
| Altitude | 35000 |
| Route | PLMMR3 BURGG Q22 RBV Q419 JFK ROBUC3 |
| Aircraft | A321/M-SDE3FGHIRWY/LB1 |
Departure
| Time | 2026-05-06 01:04 |
|---|---|
| Airport | Hartsfield Jackson Atlanta International Airport (KATL) |
Arrival
| Time | 2026-05-06 03:18 |
|---|---|
| Airport | Boston Logan International Airport (KBOS) |
| Time | Latitude | Longitude | Altitude | Speed | Heading |
|---|---|---|---|---|---|
| 2026-05-06 00:23 | 33.64194 | -84.42513 | 1036 ft | 0 kts | 269° |
| 2026-05-06 00:26 | 33.64194 | -84.42512 | 1036 ft | 0 kts | 269° |
| 2026-05-06 00:41 | 33.64194 | -84.42511 | 1035 ft | 0 kts | 269° |
| 2026-05-06 00:52 | 33.64194 | -84.42494 | 1035 ft | 3 kts | 266° |
| 2026-05-06 00:52 | 33.64198 | -84.42466 | 1035 ft | 3 kts | 251° |
| 2026-05-06 00:53 | 33.64208 | -84.42441 | 1035 ft | 3 kts | 225° |
| 2026-05-06 00:53 | 33.64227 | -84.42427 | 1035 ft | 3 kts | 183° |
| 2026-05-06 00:53 | 33.64242 | -84.42429 | 1035 ft | 1 kts | 152° |
| 2026-05-06 00:53 | 33.64245 | -84.42431 | 1035 ft | 2 kts | 152° |
| 2026-05-06 00:56 | 33.64239 | -84.42428 | 1035 ft | 4 kts | 152° |
| 2026-05-06 00:57 | 33.64214 | -84.42403 | 1035 ft | 5 kts | 129° |
| 2026-05-06 00:57 | 33.64198 | -84.42333 | 1035 ft | 12 kts | 94° |
| 2026-05-06 00:57 | 33.64163 | -84.42252 | 1035 ft | 11 kts | 155° |
| 2026-05-06 00:57 | 33.64089 | -84.42244 | 1035 ft | 10 kts | 180° |
| 2026-05-06 00:58 | 33.64070 | -84.42244 | 1035 ft | 10 kts | 180° |
| 2026-05-06 00:58 | 33.63999 | -84.42243 | 1035 ft | 14 kts | 179° |
| 2026-05-06 00:58 | 33.63900 | -84.42239 | 1035 ft | 15 kts | 178° |
| 2026-05-06 00:58 | 33.63786 | -84.42237 | 1036 ft | 16 kts | 180° |
| 2026-05-06 00:59 | 33.63678 | -84.42237 | 1036 ft | 15 kts | 179° |
| 2026-05-06 00:59 | 33.63592 | -84.42194 | 1036 ft | 13 kts | 115° |
| 2026-05-06 00:59 | 33.63582 | -84.42088 | 1036 ft | 12 kts | 90° |
| 2026-05-06 00:59 | 33.63585 | -84.41986 | 1036 ft | 12 kts | 90° |
| 2026-05-06 01:00 | 33.63583 | -84.41888 | 1035 ft | 12 kts | 91° |
| 2026-05-06 01:00 | 33.63582 | -84.41792 | 1035 ft | 11 kts | 90° |
| 2026-05-06 01:00 | 33.63582 | -84.41681 | 1035 ft | 18 kts | 90° |
| 2026-05-06 01:00 | 33.63584 | -84.41488 | 1034 ft | 27 kts | 90° |
| 2026-05-06 01:01 | 33.63582 | -84.41264 | 1035 ft | 25 kts | 90° |
| 2026-05-06 01:01 | 33.63582 | -84.41081 | 1035 ft | 21 kts | 90° |
| 2026-05-06 01:01 | 33.63570 | -84.40942 | 1035 ft | 11 kts | 122° |
| 2026-05-06 01:01 | 33.63511 | -84.40915 | 1030 ft | 9 kts | 189° |
| 2026-05-06 01:02 | 33.63473 | -84.40958 | 1036 ft | 7 kts | 255° |
| 2026-05-06 01:02 | 33.63472 | -84.40985 | 1036 ft | 0 kts | 269° |
| 2026-05-06 01:02 | 33.63471 | -84.40998 | 1036 ft | 6 kts | 269° |
| 2026-05-06 01:03 | 33.63472 | -84.41239 | 1034 ft | 62 kts | 270° |
| 2026-05-06 01:03 | 33.63470 | -84.42030 | 1036 ft | 121 kts | 270° |
| 2026-05-06 01:03 | 33.63468 | -84.43217 | 1036 ft | 164 kts | 269° |
| 2026-05-06 01:03 | 33.63455 | -84.44629 | 1528 ft | 163 kts | 267° |
| 2026-05-06 01:04 | 33.63454 | -84.45932 | 2274 ft | 154 kts | 264° |
| 2026-05-06 01:04 | 33.63443 | -84.47277 | 2669 ft | 167 kts | 263° |
| 2026-05-06 01:04 | 33.63360 | -84.48689 | 3097 ft | 172 kts | 253° |
| 2026-05-06 01:04 | 33.62887 | -84.50064 | 3272 ft | 189 kts | 236° |
| 2026-05-06 01:05 | 33.62164 | -84.51504 | 3484 ft | 214 kts | 234° |
| 2026-05-06 01:05 | 33.61342 | -84.53112 | 3783 ft | 238 kts | 236° |
| 2026-05-06 01:05 | 33.60477 | -84.54881 | 4330 ft | 251 kts | 237° |
| 2026-05-06 01:05 | 33.59606 | -84.56710 | 5126 ft | 254 kts | 234° |
| 2026-05-06 01:06 | 33.58306 | -84.58100 | 5934 ft | 255 kts | 207° |
| 2026-05-06 01:06 | 33.56552 | -84.58528 | 6724 ft | 264 kts | 185° |
| 2026-05-06 01:06 | 33.54691 | -84.58525 | 7409 ft | 270 kts | 184° |
| 2026-05-06 01:06 | 33.52794 | -84.58503 | 8103 ft | 275 kts | 185° |
| 2026-05-06 01:07 | 33.50858 | -84.58484 | 8794 ft | 281 kts | 185° |
| 2026-05-06 01:07 | 33.48885 | -84.58407 | 9457 ft | 290 kts | 176° |
| 2026-05-06 01:07 | 33.46993 | -84.57423 | 10075 ft | 310 kts | 144° |
| 2026-05-06 01:07 | 33.45691 | -84.55323 | 10662 ft | 323 kts | 112° |
| 2026-05-06 01:08 | 33.45178 | -84.52628 | 10933 ft | 344 kts | 96° |
| 2026-05-06 01:08 | 33.45092 | -84.49672 | 11070 ft | 367 kts | 88° |
| 2026-05-06 01:08 | 33.45223 | -84.46533 | 11278 ft | 385 kts | 85° |
| 2026-05-06 01:08 | 33.45412 | -84.43305 | 11813 ft | 392 kts | 85° |
| 2026-05-06 01:09 | 33.45576 | -84.40030 | 12458 ft | 396 kts | 84° |
| 2026-05-06 01:09 | 33.46012 | -84.36770 | 13146 ft | 398 kts | 74° |
| 2026-05-06 01:09 | 33.46897 | -84.33634 | 13820 ft | 398 kts | 63° |
| 2026-05-06 01:09 | 33.48237 | -84.30739 | 14393 ft | 398 kts | 51° |
| 2026-05-06 01:10 | 33.50010 | -84.28215 | 14957 ft | 396 kts | 41° |
| 2026-05-06 01:10 | 33.51949 | -84.25856 | 15515 ft | 399 kts | 40° |
| 2026-05-06 01:10 | 33.53910 | -84.23481 | 16095 ft | 402 kts | 40° |
| 2026-05-06 01:10 | 33.55886 | -84.21085 | 16651 ft | 406 kts | 40° |
| 2026-05-06 01:11 | 33.57882 | -84.18659 | 17168 ft | 410 kts | 40° |
| 2026-05-06 01:11 | 33.59894 | -84.16208 | 17682 ft | 414 kts | 40° |
| 2026-05-06 01:11 | 33.61920 | -84.13731 | 18195 ft | 418 kts | 40° |
| 2026-05-06 01:11 | 33.63961 | -84.11234 | 18637 ft | 421 kts | 40° |
| 2026-05-06 01:12 | 33.66022 | -84.08711 | 19082 ft | 424 kts | 40° |
| 2026-05-06 01:12 | 33.68098 | -84.06169 | 19514 ft | 427 kts | 40° |
| 2026-05-06 01:12 | 33.70156 | -84.03647 | 19939 ft | 430 kts | 40° |
| 2026-05-06 01:12 | 33.72259 | -84.01073 | 20378 ft | 433 kts | 40° |
| 2026-05-06 01:13 | 33.74376 | -83.98482 | 20809 ft | 435 kts | 40° |
| 2026-05-06 01:13 | 33.76504 | -83.95873 | 21232 ft | 438 kts | 40° |
| 2026-05-06 01:13 | 33.78642 | -83.93244 | 21653 ft | 441 kts | 40° |
| 2026-05-06 01:13 | 33.80793 | -83.90595 | 22074 ft | 444 kts | 41° |
| 2026-05-06 01:14 | 33.85136 | -83.85245 | 22908 ft | 450 kts | 41° |
| 2026-05-06 01:14 | 33.87328 | -83.82544 | 23318 ft | 453 kts | 41° |
| 2026-05-06 01:14 | 33.89543 | -83.79811 | 23708 ft | 456 kts | 41° |
| 2026-05-06 01:15 | 33.91765 | -83.77068 | 24053 ft | 458 kts | 41° |
| 2026-05-06 01:15 | 33.93995 | -83.74310 | 24396 ft | 461 kts | 41° |
| 2026-05-06 01:15 | 33.96115 | -83.71385 | 24729 ft | 468 kts | 49° |
| 2026-05-06 01:15 | 33.98061 | -83.68220 | 25064 ft | 470 kts | 49° |
| 2026-05-06 01:16 | 34.00012 | -83.65043 | 25410 ft | 473 kts | 48° |
| 2026-05-06 01:16 | 34.01971 | -83.61847 | 25740 ft | 475 kts | 48° |
| 2026-05-06 01:16 | 34.03934 | -83.58639 | 26073 ft | 477 kts | 48° |
| 2026-05-06 01:16 | 34.05884 | -83.55451 | 26394 ft | 480 kts | 48° |
| 2026-05-06 01:17 | 34.07871 | -83.52205 | 26721 ft | 482 kts | 47° |
| 2026-05-06 01:17 | 34.09868 | -83.48943 | 27083 ft | 483 kts | 47° |
| 2026-05-06 01:17 | 34.11867 | -83.45677 | 27417 ft | 484 kts | 47° |
| 2026-05-06 01:17 | 34.13871 | -83.42399 | 27721 ft | 486 kts | 47° |
| 2026-05-06 01:18 | 34.15880 | -83.39108 | 28018 ft | 488 kts | 47° |
| 2026-05-06 01:18 | 34.17898 | -83.35797 | 28324 ft | 490 kts | 46° |
| 2026-05-06 01:18 | 34.19927 | -83.32466 | 28608 ft | 492 kts | 46° |
| 2026-05-06 01:18 | 34.21962 | -83.29126 | 28905 ft | 494 kts | 46° |
| 2026-05-06 01:19 | 34.24004 | -83.25770 | 29193 ft | 496 kts | 46° |
| 2026-05-06 01:19 | 34.26049 | -83.22407 | 29493 ft | 498 kts | 46° |
| 2026-05-06 01:19 | 34.28099 | -83.19027 | 29898 ft | 497 kts | 46° |
| 2026-05-06 01:19 | 34.30139 | -83.15658 | 30282 ft | 496 kts | 46° |
| 2026-05-06 01:20 | 34.32175 | -83.12294 | 30617 ft | 495 kts | 46° |
| 2026-05-06 01:20 | 34.34214 | -83.08943 | 30971 ft | 493 kts | 45° |
| 2026-05-06 01:20 | 34.36254 | -83.05609 | 31324 ft | 492 kts | 45° |
| 2026-05-06 01:20 | 34.38291 | -83.02291 | 31677 ft | 491 kts | 44° |
| 2026-05-06 01:21 | 34.40327 | -82.98979 | 32028 ft | 490 kts | 44° |
| 2026-05-06 01:21 | 34.42358 | -82.95670 | 32371 ft | 489 kts | 44° |
| 2026-05-06 01:21 | 34.44357 | -82.92403 | 32718 ft | 488 kts | 44° |
| 2026-05-06 01:21 | 34.46369 | -82.89098 | 33075 ft | 487 kts | 43° |
| 2026-05-06 01:22 | 34.48377 | -82.85796 | 33423 ft | 486 kts | 43° |
| 2026-05-06 01:22 | 34.50378 | -82.82500 | 33775 ft | 485 kts | 43° |
| 2026-05-06 01:22 | 34.52375 | -82.79203 | 34144 ft | 484 kts | 43° |
| 2026-05-06 01:22 | 34.54372 | -82.75909 | 34395 ft | 485 kts | 43° |
| 2026-05-06 01:23 | 34.56374 | -82.72608 | 34654 ft | 485 kts | 43° |
| 2026-05-06 01:23 | 34.58372 | -82.69313 | 34910 ft | 485 kts | 43° |
| 2026-05-06 01:23 | 34.62356 | -82.62718 | 35017 ft | 481 kts | 43° |
| 2026-05-06 01:24 | 34.66279 | -82.56208 | 35022 ft | 479 kts | 43° |
| 2026-05-06 01:24 | 34.70193 | -82.49643 | 35034 ft | 480 kts | 44° |
| 2026-05-06 01:25 | 34.74067 | -82.43015 | 35035 ft | 481 kts | 44° |
| 2026-05-06 01:25 | 34.77934 | -82.36378 | 35053 ft | 480 kts | 44° |
| 2026-05-06 01:26 | 34.81804 | -82.29745 | 35046 ft | 480 kts | 44° |
| 2026-05-06 01:26 | 34.85670 | -82.23132 | 35032 ft | 479 kts | 44° |
| 2026-05-06 01:27 | 34.89535 | -82.16519 | 35030 ft | 479 kts | 44° |
| 2026-05-06 01:27 | 34.93364 | -82.09943 | 35024 ft | 479 kts | 44° |
| 2026-05-06 01:28 | 34.97208 | -82.03311 | 35021 ft | 479 kts | 44° |
| 2026-05-06 01:28 | 35.01054 | -81.96674 | 35029 ft | 479 kts | 44° |
| 2026-05-06 01:29 | 35.04930 | -81.90040 | 35016 ft | 478 kts | 43° |
| 2026-05-06 01:29 | 35.08924 | -81.83572 | 35005 ft | 476 kts | 42° |
| 2026-05-06 01:30 | 35.12291 | -81.78245 | 35001 ft | 476 kts | 42° |
| 2026-05-06 01:30 | 35.16320 | -81.71815 | 35012 ft | 477 kts | 42° |
| 2026-05-06 01:31 | 35.20326 | -81.65327 | 35027 ft | 478 kts | 43° |
| 2026-05-06 01:31 | 35.24318 | -81.58823 | 35052 ft | 478 kts | 43° |
| 2026-05-06 01:32 | 35.28307 | -81.52320 | 35014 ft | 477 kts | 43° |
| 2026-05-06 01:32 | 35.32280 | -81.45857 | 35018 ft | 477 kts | 43° |
| 2026-05-06 01:33 | 35.36299 | -81.39325 | 35022 ft | 477 kts | 43° |
| 2026-05-06 01:33 | 35.40257 | -81.32856 | 35030 ft | 477 kts | 43° |
| 2026-05-06 01:34 | 35.44236 | -81.26325 | 35079 ft | 478 kts | 43° |
| 2026-05-06 01:34 | 35.48216 | -81.19792 | 35069 ft | 478 kts | 43° |
| 2026-05-06 01:35 | 35.52185 | -81.13255 | 35051 ft | 477 kts | 43° |
| 2026-05-06 01:35 | 35.56155 | -81.06727 | 35050 ft | 477 kts | 43° |
| 2026-05-06 01:36 | 35.60121 | -81.00195 | 35036 ft | 477 kts | 43° |
| 2026-05-06 01:36 | 35.64055 | -80.93685 | 35040 ft | 477 kts | 43° |
| 2026-05-06 01:37 | 35.68006 | -80.87137 | 35055 ft | 476 kts | 44° |
| 2026-05-06 01:37 | 35.71955 | -80.80591 | 35047 ft | 476 kts | 44° |
| 2026-05-06 01:38 | 35.75891 | -80.74050 | 35036 ft | 475 kts | 43° |
| 2026-05-06 01:38 | 35.79830 | -80.67496 | 35025 ft | 475 kts | 44° |
| 2026-05-06 01:39 | 35.83759 | -80.60949 | 35034 ft | 475 kts | 44° |
| 2026-05-06 01:39 | 35.87681 | -80.54392 | 35030 ft | 475 kts | 44° |
| 2026-05-06 01:40 | 35.91601 | -80.47824 | 35021 ft | 475 kts | 44° |
| 2026-05-06 01:40 | 35.95504 | -80.41256 | 35024 ft | 474 kts | 44° |
| 2026-05-06 01:41 | 36.03234 | -80.28275 | 35008 ft | 473 kts | 44° |
| 2026-05-06 01:42 | 36.07116 | -80.21758 | 34999 ft | 473 kts | 44° |
| 2026-05-06 01:42 | 36.11015 | -80.15191 | 35031 ft | 474 kts | 44° |
| 2026-05-06 01:43 | 36.14918 | -80.08602 | 35014 ft | 474 kts | 44° |
| 2026-05-06 01:43 | 36.18817 | -80.01999 | 35031 ft | 474 kts | 44° |
| 2026-05-06 01:44 | 36.22712 | -79.95402 | 35026 ft | 474 kts | 44° |
| 2026-05-06 01:44 | 36.26580 | -79.88848 | 35022 ft | 474 kts | 44° |
| 2026-05-06 01:45 | 36.30467 | -79.82245 | 35028 ft | 474 kts | 44° |
| 2026-05-06 01:45 | 36.34339 | -79.75632 | 35048 ft | 474 kts | 44° |
| 2026-05-06 01:46 | 36.38209 | -79.69021 | 35038 ft | 473 kts | 44° |
| 2026-05-06 01:46 | 36.42075 | -79.62410 | 35004 ft | 473 kts | 44° |
| 2026-05-06 01:47 | 36.45931 | -79.55791 | 35000 ft | 473 kts | 44° |
| 2026-05-06 01:47 | 36.49788 | -79.49159 | 34991 ft | 474 kts | 44° |
| 2026-05-06 01:48 | 36.53655 | -79.42509 | 35023 ft | 474 kts | 44° |
| 2026-05-06 01:48 | 36.57509 | -79.35861 | 35037 ft | 474 kts | 44° |
| 2026-05-06 01:49 | 36.61360 | -79.29210 | 35029 ft | 473 kts | 44° |
| 2026-05-06 01:49 | 36.65210 | -79.22556 | 35022 ft | 473 kts | 44° |
| 2026-05-06 01:50 | 36.69046 | -79.15897 | 35011 ft | 473 kts | 44° |
| 2026-05-06 01:50 | 36.72876 | -79.09228 | 35008 ft | 473 kts | 44° |
| 2026-05-06 01:51 | 36.76712 | -79.02553 | 35026 ft | 473 kts | 44° |
| 2026-05-06 01:51 | 36.80530 | -78.95885 | 35011 ft | 472 kts | 44° |
| 2026-05-06 01:52 | 36.84319 | -78.89251 | 34999 ft | 472 kts | 44° |
| 2026-05-06 01:52 | 36.88137 | -78.82525 | 35004 ft | 472 kts | 45° |
| 2026-05-06 01:53 | 36.91918 | -78.75836 | 34996 ft | 471 kts | 45° |
| 2026-05-06 01:53 | 36.95681 | -78.69183 | 35031 ft | 471 kts | 45° |
| 2026-05-06 01:54 | 36.99458 | -78.62489 | 35027 ft | 471 kts | 45° |
| 2026-05-06 01:54 | 37.03229 | -78.55781 | 35018 ft | 471 kts | 45° |
| 2026-05-06 01:55 | 37.06989 | -78.49066 | 35004 ft | 471 kts | 45° |
| 2026-05-06 01:55 | 37.10750 | -78.42345 | 34992 ft | 471 kts | 45° |
| 2026-05-06 01:56 | 37.14511 | -78.35618 | 35017 ft | 471 kts | 45° |
| 2026-05-06 01:56 | 37.18273 | -78.28887 | 35005 ft | 471 kts | 45° |
| 2026-05-06 01:57 | 37.21770 | -78.21853 | 35005 ft | 480 kts | 52° |
| 2026-05-06 01:57 | 37.25012 | -78.14532 | 34990 ft | 480 kts | 52° |
| 2026-05-06 01:58 | 37.28259 | -78.07204 | 34981 ft | 480 kts | 52° |
| 2026-05-06 01:58 | 37.31508 | -77.99878 | 34989 ft | 480 kts | 52° |
| 2026-05-06 01:59 | 37.34753 | -77.92532 | 35006 ft | 480 kts | 52° |
| 2026-05-06 01:59 | 37.37985 | -77.85179 | 35018 ft | 480 kts | 52° |
| 2026-05-06 02:00 | 37.41194 | -77.77875 | 35021 ft | 480 kts | 52° |
| 2026-05-06 02:00 | 37.44424 | -77.70524 | 35016 ft | 480 kts | 52° |
| 2026-05-06 02:01 | 37.47645 | -77.63172 | 35037 ft | 480 kts | 52° |
| 2026-05-06 02:01 | 37.50861 | -77.55803 | 35046 ft | 479 kts | 52° |
| 2026-05-06 02:02 | 37.54055 | -77.48455 | 35014 ft | 477 kts | 53° |
| 2026-05-06 02:02 | 37.57235 | -77.41142 | 35007 ft | 475 kts | 53° |
| 2026-05-06 02:03 | 37.60411 | -77.33829 | 35006 ft | 475 kts | 53° |
| 2026-05-06 02:03 | 37.63578 | -77.26509 | 35001 ft | 475 kts | 53° |
| 2026-05-06 02:04 | 37.66722 | -77.19235 | 35002 ft | 473 kts | 51° |
| 2026-05-06 02:04 | 37.68562 | -77.15861 | 35003 ft | 461 kts | 41° |
| 2026-05-06 02:04 | 37.70752 | -77.12980 | 35004 ft | 450 kts | 32° |
| 2026-05-06 02:05 | 37.73214 | -77.10620 | 35003 ft | 439 kts | 23° |
| 2026-05-06 02:05 | 37.75841 | -77.08736 | 35005 ft | 433 kts | 19° |
| 2026-05-06 02:05 | 37.81138 | -77.05085 | 35007 ft | 434 kts | 20° |
| 2026-05-06 02:06 | 37.86429 | -77.01409 | 35012 ft | 434 kts | 20° |
| 2026-05-06 02:06 | 37.91726 | -76.97736 | 35013 ft | 434 kts | 20° |
| 2026-05-06 02:07 | 37.97023 | -76.94057 | 34994 ft | 434 kts | 20° |
| 2026-05-06 02:07 | 38.02324 | -76.90364 | 34985 ft | 435 kts | 20° |
| 2026-05-06 02:08 | 38.07632 | -76.86656 | 34983 ft | 435 kts | 20° |
| 2026-05-06 02:08 | 38.12906 | -76.82971 | 34966 ft | 436 kts | 21° |
| 2026-05-06 02:09 | 38.18233 | -76.79248 | 34979 ft | 438 kts | 21° |
| 2026-05-06 02:09 | 38.23575 | -76.75488 | 34964 ft | 440 kts | 24° |
| 2026-05-06 02:10 | 38.28473 | -76.70613 | 34957 ft | 451 kts | 32° |
| 2026-05-06 02:10 | 38.33262 | -76.65430 | 34965 ft | 452 kts | 32° |
| 2026-05-06 02:11 | 38.38056 | -76.60245 | 34974 ft | 452 kts | 33° |
| 2026-05-06 02:11 | 38.42853 | -76.55050 | 34969 ft | 452 kts | 33° |
| 2026-05-06 02:12 | 38.47667 | -76.49868 | 34981 ft | 452 kts | 33° |
| 2026-05-06 02:12 | 38.52483 | -76.44718 | 34957 ft | 454 kts | 33° |
| 2026-05-06 02:13 | 38.57323 | -76.39519 | 34955 ft | 455 kts | 33° |
| 2026-05-06 02:13 | 38.62172 | -76.34292 | 34952 ft | 456 kts | 33° |
| 2026-05-06 02:14 | 38.67017 | -76.29045 | 34960 ft | 456 kts | 33° |
| 2026-05-06 02:14 | 38.71872 | -76.23791 | 34957 ft | 457 kts | 33° |
| 2026-05-06 02:15 | 38.76729 | -76.18529 | 34985 ft | 457 kts | 33° |
| 2026-05-06 02:15 | 38.81593 | -76.13253 | 34976 ft | 458 kts | 34° |
| 2026-05-06 02:16 | 38.86456 | -76.07960 | 34966 ft | 459 kts | 34° |
| 2026-05-06 02:16 | 38.91295 | -76.02685 | 34961 ft | 459 kts | 34° |
| 2026-05-06 02:17 | 38.96170 | -75.97363 | 34986 ft | 460 kts | 34° |
| 2026-05-06 02:17 | 39.00954 | -75.91845 | 34954 ft | 463 kts | 37° |
| 2026-05-06 02:18 | 39.05636 | -75.86151 | 34950 ft | 463 kts | 38° |
| 2026-05-06 02:18 | 39.10324 | -75.80460 | 34941 ft | 463 kts | 37° |
| 2026-05-06 02:19 | 39.14475 | -75.75497 | 34945 ft | 463 kts | 37° |
| 2026-05-06 02:21 | 39.17414 | -75.72003 | 34954 ft | 463 kts | 37° |
| 2026-05-06 02:22 | 39.19175 | -75.69903 | 34944 ft | 464 kts | 37° |
| 2026-05-06 02:23 | 39.22216 | -75.66263 | 34935 ft | 464 kts | 37° |
| 2026-05-06 02:23 | 39.26947 | -75.60577 | 34932 ft | 465 kts | 37° |
| 2026-05-06 02:24 | 39.31679 | -75.54881 | 34930 ft | 465 kts | 37° |
| 2026-05-06 02:24 | 39.36407 | -75.49173 | 34953 ft | 466 kts | 37° |
| 2026-05-06 02:25 | 39.41146 | -75.43452 | 34942 ft | 466 kts | 37° |
| 2026-05-06 02:25 | 39.45854 | -75.37750 | 34935 ft | 466 kts | 38° |
| 2026-05-06 02:26 | 39.50587 | -75.32010 | 34939 ft | 466 kts | 38° |
| 2026-05-06 02:26 | 39.55317 | -75.26271 | 34956 ft | 466 kts | 38° |
| 2026-05-06 02:27 | 39.60048 | -75.20518 | 34957 ft | 466 kts | 38° |
| 2026-05-06 02:27 | 39.64774 | -75.14751 | 34933 ft | 466 kts | 38° |
| 2026-05-06 02:28 | 39.69513 | -75.09016 | 34931 ft | 465 kts | 36° |
| 2026-05-06 02:28 | 39.74383 | -75.03512 | 34933 ft | 464 kts | 35° |
| 2026-05-06 02:29 | 39.79276 | -74.98127 | 34945 ft | 463 kts | 35° |
| 2026-05-06 02:29 | 39.84170 | -74.92669 | 34946 ft | 463 kts | 36° |
| 2026-05-06 02:30 | 39.89031 | -74.87152 | 34953 ft | 463 kts | 36° |
| 2026-05-06 02:30 | 39.94169 | -74.82194 | 34966 ft | 460 kts | 30° |
| 2026-05-06 02:31 | 39.99393 | -74.77377 | 34950 ft | 460 kts | 30° |
| 2026-05-06 02:31 | 40.04460 | -74.72220 | 34946 ft | 468 kts | 40° |
| 2026-05-06 02:32 | 40.08872 | -74.65931 | 34921 ft | 470 kts | 43° |
| 2026-05-06 02:32 | 40.13260 | -74.59592 | 34930 ft | 471 kts | 43° |
| 2026-05-06 02:33 | 40.17653 | -74.53237 | 34917 ft | 471 kts | 43° |
| 2026-05-06 02:33 | 40.19112 | -74.51131 | 34918 ft | 471 kts | 42° |
| 2026-05-06 02:34 | 40.27333 | -74.41960 | 34935 ft | 465 kts | 34° |
| 2026-05-06 02:34 | 40.32347 | -74.36595 | 34942 ft | 466 kts | 34° |
| 2026-05-06 02:35 | 40.37363 | -74.31209 | 34925 ft | 466 kts | 34° |
| 2026-05-06 02:35 | 40.42380 | -74.25824 | 34908 ft | 466 kts | 34° |
| 2026-05-06 02:36 | 40.47394 | -74.20429 | 34937 ft | 466 kts | 34° |
| 2026-05-06 02:36 | 40.52312 | -74.14909 | 34921 ft | 460 kts | 43° |
| 2026-05-06 02:37 | 40.56451 | -74.08762 | 34369 ft | 447 kts | 40° |
| 2026-05-06 02:37 | 40.58466 | -74.05639 | 33798 ft | 453 kts | 56° |
| 2026-05-06 02:37 | 40.59673 | -74.01800 | 33159 ft | 458 kts | 77° |
| 2026-05-06 02:37 | 40.60075 | -73.97636 | 32430 ft | 460 kts | 88° |
| 2026-05-06 02:38 | 40.60121 | -73.93411 | 31747 ft | 462 kts | 89° |
| 2026-05-06 02:38 | 40.60420 | -73.89204 | 31097 ft | 463 kts | 78° |
| 2026-05-06 02:38 | 40.61157 | -73.85076 | 30415 ft | 464 kts | 75° |
| 2026-05-06 02:38 | 40.62151 | -73.81031 | 29684 ft | 465 kts | 65° |
| 2026-05-06 02:39 | 40.63707 | -73.77308 | 28868 ft | 466 kts | 54° |
| 2026-05-06 02:39 | 40.65657 | -73.73892 | 27985 ft | 468 kts | 47° |
| 2026-05-06 02:39 | 40.67844 | -73.70704 | 27245 ft | 470 kts | 45° |
| 2026-05-06 02:39 | 40.70037 | -73.67493 | 27008 ft | 473 kts | 46° |
| 2026-05-06 02:40 | 40.72222 | -73.64230 | 26910 ft | 474 kts | 47° |
| 2026-05-06 02:40 | 40.74403 | -73.60958 | 26956 ft | 474 kts | 47° |
| 2026-05-06 02:40 | 40.76583 | -73.57701 | 26954 ft | 474 kts | 46° |
| 2026-05-06 02:40 | 40.78775 | -73.54457 | 26921 ft | 474 kts | 46° |
| 2026-05-06 02:41 | 40.80978 | -73.51217 | 26931 ft | 474 kts | 46° |
| 2026-05-06 02:41 | 40.83188 | -73.47975 | 26920 ft | 475 kts | 46° |
| 2026-05-06 02:41 | 40.85396 | -73.44734 | 26922 ft | 475 kts | 46° |
| 2026-05-06 02:41 | 40.87607 | -73.41485 | 26921 ft | 475 kts | 46° |
| 2026-05-06 02:42 | 40.89816 | -73.38231 | 26920 ft | 475 kts | 46° |
| 2026-05-06 02:42 | 40.92023 | -73.34971 | 26919 ft | 475 kts | 46° |
| 2026-05-06 02:42 | 40.94228 | -73.31711 | 26921 ft | 475 kts | 46° |
| 2026-05-06 02:42 | 40.96427 | -73.28454 | 26905 ft | 475 kts | 47° |
| 2026-05-06 02:43 | 40.98623 | -73.25196 | 26938 ft | 474 kts | 47° |
| 2026-05-06 02:43 | 41.00815 | -73.21939 | 26942 ft | 474 kts | 47° |
| 2026-05-06 02:43 | 41.03007 | -73.18677 | 26938 ft | 474 kts | 47° |
| 2026-05-06 02:43 | 41.05169 | -73.15458 | 26821 ft | 474 kts | 47° |
| 2026-05-06 02:44 | 41.07360 | -73.12201 | 26562 ft | 474 kts | 47° |
| 2026-05-06 02:44 | 41.09552 | -73.08946 | 26331 ft | 472 kts | 47° |
| 2026-05-06 02:44 | 41.11726 | -73.05711 | 25724 ft | 469 kts | 47° |
| 2026-05-06 02:44 | 41.13887 | -73.02487 | 25103 ft | 467 kts | 47° |
| 2026-05-06 02:45 | 41.16041 | -72.99267 | 24433 ft | 466 kts | 47° |
| 2026-05-06 02:45 | 41.18192 | -72.96048 | 23809 ft | 465 kts | 47° |
| 2026-05-06 02:45 | 41.20298 | -72.92792 | 23173 ft | 462 kts | 52° |
| 2026-05-06 02:45 | 41.22016 | -72.89240 | 22937 ft | 453 kts | 62° |
| 2026-05-06 02:46 | 41.23430 | -72.85515 | 22949 ft | 451 kts | 63° |
| 2026-05-06 02:46 | 41.24851 | -72.81794 | 22949 ft | 451 kts | 63° |
| 2026-05-06 02:46 | 41.26281 | -72.78086 | 22952 ft | 451 kts | 63° |
| 2026-05-06 02:46 | 41.27714 | -72.74370 | 22951 ft | 451 kts | 63° |
| 2026-05-06 02:47 | 41.29145 | -72.70651 | 22948 ft | 451 kts | 63° |
| 2026-05-06 02:47 | 41.30575 | -72.66921 | 22979 ft | 453 kts | 63° |
| 2026-05-06 02:47 | 41.32000 | -72.63183 | 22978 ft | 453 kts | 63° |
| 2026-05-06 02:47 | 41.33422 | -72.59438 | 22968 ft | 453 kts | 63° |
| 2026-05-06 02:48 | 41.34836 | -72.55708 | 22981 ft | 451 kts | 63° |
| 2026-05-06 02:48 | 41.36247 | -72.51984 | 22981 ft | 451 kts | 63° |
| 2026-05-06 02:48 | 41.37658 | -72.48263 | 22981 ft | 451 kts | 63° |
| 2026-05-06 02:48 | 41.39070 | -72.44534 | 22980 ft | 451 kts | 63° |
| 2026-05-06 02:49 | 41.40479 | -72.40807 | 22980 ft | 450 kts | 63° |
| 2026-05-06 02:49 | 41.41885 | -72.37076 | 22977 ft | 451 kts | 63° |
| 2026-05-06 02:49 | 41.43288 | -72.33341 | 22972 ft | 450 kts | 63° |
| 2026-05-06 02:49 | 41.44671 | -72.29660 | 22968 ft | 451 kts | 63° |
| 2026-05-06 02:50 | 41.46074 | -72.25921 | 22963 ft | 451 kts | 63° |
| 2026-05-06 02:50 | 41.47472 | -72.22197 | 22964 ft | 449 kts | 63° |
| 2026-05-06 02:50 | 41.48864 | -72.18477 | 22949 ft | 448 kts | 63° |
| 2026-05-06 02:50 | 41.50239 | -72.14749 | 22951 ft | 447 kts | 64° |
| 2026-05-06 02:51 | 41.51601 | -72.11021 | 22954 ft | 447 kts | 64° |
| 2026-05-06 02:51 | 41.52956 | -72.07290 | 22955 ft | 447 kts | 64° |
| 2026-05-06 02:51 | 41.54310 | -72.03552 | 22956 ft | 447 kts | 64° |
| 2026-05-06 02:51 | 41.55663 | -71.99815 | 22955 ft | 447 kts | 64° |
| 2026-05-06 02:52 | 41.56943 | -71.96027 | 22962 ft | 447 kts | 67° |
| 2026-05-06 02:52 | 41.58124 | -71.92190 | 22967 ft | 447 kts | 69° |
| 2026-05-06 02:52 | 41.59243 | -71.88312 | 22959 ft | 446 kts | 69° |
| 2026-05-06 02:52 | 41.60336 | -71.84439 | 22961 ft | 445 kts | 69° |
| 2026-05-06 02:53 | 41.61429 | -71.80568 | 22968 ft | 445 kts | 69° |
| 2026-05-06 02:53 | 41.62533 | -71.76706 | 22963 ft | 445 kts | 69° |
| 2026-05-06 02:53 | 41.63656 | -71.72849 | 22964 ft | 445 kts | 68° |
| 2026-05-06 02:53 | 41.64792 | -71.69002 | 22969 ft | 443 kts | 68° |
| 2026-05-06 02:54 | 41.65906 | -71.65245 | 22965 ft | 425 kts | 68° |
| 2026-05-06 02:54 | 41.66970 | -71.61651 | 22970 ft | 408 kts | 68° |
| 2026-05-06 02:54 | 41.68000 | -71.58154 | 22919 ft | 401 kts | 68° |
| 2026-05-06 02:54 | 41.69013 | -71.54702 | 22463 ft | 397 kts | 68° |
| 2026-05-06 02:55 | 41.70013 | -71.51282 | 22006 ft | 394 kts | 68° |
| 2026-05-06 02:55 | 41.71007 | -71.47877 | 21546 ft | 391 kts | 69° |
| 2026-05-06 02:55 | 41.71996 | -71.44493 | 21088 ft | 389 kts | 68° |
| 2026-05-06 02:55 | 41.73196 | -71.41263 | 20627 ft | 387 kts | 59° |
| 2026-05-06 02:56 | 41.74536 | -71.38149 | 20180 ft | 385 kts | 59° |
| 2026-05-06 02:56 | 41.75862 | -71.35048 | 19744 ft | 383 kts | 60° |
| 2026-05-06 02:56 | 41.77179 | -71.31959 | 19300 ft | 381 kts | 60° |
| 2026-05-06 02:56 | 41.78490 | -71.28883 | 18866 ft | 379 kts | 60° |
| 2026-05-06 02:57 | 41.79794 | -71.25819 | 18453 ft | 378 kts | 60° |
| 2026-05-06 02:57 | 41.81093 | -71.22772 | 18114 ft | 373 kts | 60° |
| 2026-05-06 02:57 | 41.82365 | -71.19784 | 17874 ft | 365 kts | 60° |
| 2026-05-06 02:57 | 41.83616 | -71.16844 | 17507 ft | 361 kts | 60° |
| 2026-05-06 02:58 | 41.84854 | -71.13927 | 17110 ft | 359 kts | 60° |
| 2026-05-06 02:58 | 41.86080 | -71.11033 | 16741 ft | 356 kts | 60° |
| 2026-05-06 02:58 | 41.87312 | -71.08156 | 16366 ft | 354 kts | 59° |
| 2026-05-06 02:58 | 41.88542 | -71.05314 | 15996 ft | 352 kts | 59° |
| 2026-05-06 02:59 | 41.89772 | -71.02488 | 15627 ft | 349 kts | 59° |
| 2026-05-06 02:59 | 41.90991 | -70.99684 | 15268 ft | 347 kts | 59° |
| 2026-05-06 02:59 | 41.92201 | -70.96894 | 14910 ft | 345 kts | 59° |
| 2026-05-06 02:59 | 41.93399 | -70.94116 | 14561 ft | 342 kts | 60° |
| 2026-05-06 03:00 | 41.94590 | -70.91354 | 14217 ft | 340 kts | 60° |
| 2026-05-06 03:00 | 41.95769 | -70.88613 | 13875 ft | 338 kts | 60° |
| 2026-05-06 03:00 | 41.96928 | -70.85916 | 13483 ft | 337 kts | 60° |
| 2026-05-06 03:00 | 41.98092 | -70.83194 | 13092 ft | 335 kts | 60° |
| 2026-05-06 03:01 | 41.99251 | -70.80483 | 12713 ft | 334 kts | 60° |
| 2026-05-06 03:01 | 42.00405 | -70.77789 | 12355 ft | 331 kts | 60° |
| 2026-05-06 03:01 | 42.01729 | -70.75275 | 11952 ft | 328 kts | 47° |
| 2026-05-06 03:01 | 42.03263 | -70.72994 | 11563 ft | 327 kts | 47° |
| 2026-05-06 03:02 | 42.04784 | -70.70720 | 11190 ft | 326 kts | 47° |
| 2026-05-06 03:02 | 42.06293 | -70.68455 | 10812 ft | 324 kts | 47° |
| 2026-05-06 03:02 | 42.07794 | -70.66202 | 10443 ft | 323 kts | 47° |
| 2026-05-06 03:02 | 42.09306 | -70.63969 | 10084 ft | 321 kts | 43° |
| 2026-05-06 03:03 | 42.11039 | -70.62176 | 9705 ft | 316 kts | 26° |
| 2026-05-06 03:03 | 42.13037 | -70.61033 | 9310 ft | 310 kts | 11° |
| 2026-05-06 03:03 | 42.15130 | -70.60429 | 8895 ft | 307 kts | 6° |
| 2026-05-06 03:03 | 42.17217 | -70.59855 | 8509 ft | 305 kts | 6° |
| 2026-05-06 03:04 | 42.19298 | -70.59276 | 8109 ft | 304 kts | 6° |
| 2026-05-06 03:04 | 42.21366 | -70.58699 | 7740 ft | 302 kts | 6° |
| 2026-05-06 03:04 | 42.23416 | -70.58123 | 7369 ft | 300 kts | 6° |
| 2026-05-06 03:04 | 42.25455 | -70.57551 | 6987 ft | 298 kts | 6° |
| 2026-05-06 03:05 | 42.27485 | -70.56981 | 6622 ft | 296 kts | 6° |
| 2026-05-06 03:05 | 42.29498 | -70.56435 | 6252 ft | 293 kts | 2° |
| 2026-05-06 03:05 | 42.31483 | -70.56426 | 5848 ft | 281 kts | 343° |
| 2026-05-06 03:05 | 42.33309 | -70.57170 | 5432 ft | 269 kts | 326° |
| 2026-05-06 03:06 | 42.34840 | -70.58512 | 5074 ft | 257 kts | 310° |
| 2026-05-06 03:06 | 42.35688 | -70.59622 | 5016 ft | 256 kts | 308° |
| 2026-05-06 03:06 | 42.36967 | -70.61314 | 5015 ft | 258 kts | 308° |
| 2026-05-06 03:06 | 42.38259 | -70.63008 | 5019 ft | 258 kts | 308° |
| 2026-05-06 03:07 | 42.39549 | -70.64697 | 5020 ft | 258 kts | 308° |
| 2026-05-06 03:07 | 42.40838 | -70.66389 | 5011 ft | 258 kts | 308° |
| 2026-05-06 03:07 | 42.42127 | -70.68082 | 5009 ft | 258 kts | 308° |
| 2026-05-06 03:07 | 42.43417 | -70.69779 | 5012 ft | 259 kts | 308° |
| 2026-05-06 03:08 | 42.44711 | -70.71483 | 5012 ft | 259 kts | 308° |
| 2026-05-06 03:08 | 42.46002 | -70.73183 | 5012 ft | 259 kts | 308° |
| 2026-05-06 03:08 | 42.47285 | -70.74869 | 4995 ft | 251 kts | 308° |
| 2026-05-06 03:08 | 42.48499 | -70.76452 | 4993 ft | 234 kts | 308° |
| 2026-05-06 03:09 | 42.49631 | -70.77928 | 5014 ft | 218 kts | 307° |
| 2026-05-06 03:09 | 42.50695 | -70.79328 | 5017 ft | 215 kts | 307° |
| 2026-05-06 03:09 | 42.51829 | -70.80657 | 4963 ft | 220 kts | 319° |
| 2026-05-06 03:09 | 42.53308 | -70.81345 | 4594 ft | 235 kts | 346° |
| 2026-05-06 03:10 | 42.54975 | -70.81023 | 4186 ft | 250 kts | 13° |
| 2026-05-06 03:10 | 42.56622 | -70.80205 | 4002 ft | 253 kts | 13° |
| 2026-05-06 03:10 | 42.58291 | -70.79802 | 4007 ft | 239 kts | 346° |
| 2026-05-06 03:10 | 42.59779 | -70.80545 | 4013 ft | 217 kts | 312° |
| 2026-05-06 03:11 | 42.60584 | -70.82084 | 4009 ft | 196 kts | 279° |
| 2026-05-06 03:11 | 42.60750 | -70.83889 | 4010 ft | 192 kts | 267° |
| 2026-05-06 03:11 | 42.60785 | -70.85692 | 4007 ft | 191 kts | 266° |
| 2026-05-06 03:11 | 42.60585 | -70.87437 | 4003 ft | 182 kts | 246° |
| 2026-05-06 03:12 | 42.59910 | -70.88785 | 4003 ft | 170 kts | 225° |
| 2026-05-06 03:12 | 42.58901 | -70.89623 | 4003 ft | 173 kts | 207° |
| 2026-05-06 03:12 | 42.57765 | -70.90174 | 4005 ft | 173 kts | 206° |
| 2026-05-06 03:12 | 42.56623 | -70.90730 | 3897 ft | 176 kts | 206° |
| 2026-05-06 03:13 | 42.55485 | -70.91282 | 3717 ft | 169 kts | 207° |
| 2026-05-06 03:13 | 42.54419 | -70.91798 | 3510 ft | 157 kts | 207° |
| 2026-05-06 03:13 | 42.53425 | -70.92282 | 3313 ft | 147 kts | 207° |
| 2026-05-06 03:13 | 42.52490 | -70.92737 | 3128 ft | 139 kts | 207° |
| 2026-05-06 03:14 | 42.51601 | -70.93171 | 2942 ft | 134 kts | 207° |
| 2026-05-06 03:14 | 42.50738 | -70.93592 | 2781 ft | 132 kts | 208° |
| 2026-05-06 03:14 | 42.49877 | -70.94012 | 2615 ft | 131 kts | 208° |
| 2026-05-06 03:14 | 42.49026 | -70.94426 | 2443 ft | 129 kts | 208° |
| 2026-05-06 03:15 | 42.48182 | -70.94837 | 2272 ft | 129 kts | 208° |
| 2026-05-06 03:15 | 42.47336 | -70.95248 | 2100 ft | 129 kts | 208° |
| 2026-05-06 03:15 | 42.46498 | -70.95655 | 1960 ft | 126 kts | 208° |
| 2026-05-06 03:15 | 42.45667 | -70.96059 | 1786 ft | 127 kts | 207° |
| 2026-05-06 03:16 | 42.44834 | -70.96463 | 1612 ft | 128 kts | 207° |
| 2026-05-06 03:16 | 42.43990 | -70.96875 | 1432 ft | 131 kts | 206° |
| 2026-05-06 03:16 | 42.43143 | -70.97285 | 1259 ft | 130 kts | 206° |
| 2026-05-06 03:16 | 42.42293 | -70.97697 | 1070 ft | 129 kts | 205° |
| 2026-05-06 03:17 | 42.41457 | -70.98102 | 897 ft | 130 kts | 203° |
| 2026-05-06 03:17 | 42.40616 | -70.98508 | 800 ft | 128 kts | 203° |
| 2026-05-06 03:17 | 42.39778 | -70.98906 | 624 ft | 128 kts | 203° |
| 2026-05-06 03:17 | 42.38942 | -70.99323 | 476 ft | 129 kts | 200° |
| 2026-05-06 03:18 | 42.38108 | -70.99721 | 265 ft | 130 kts | 201° |
| 2026-05-06 03:18 | 42.37285 | -71.00129 | 46 ft | 124 kts | 200° |
| 2026-05-06 03:18 | 42.36548 | -71.00483 | 29 ft | 100 kts | 200° |
| 2026-05-06 03:18 | 42.36095 | -71.00705 | 27 ft | 43 kts | 200° |
| 2026-05-06 03:19 | 42.35875 | -71.00810 | 30 ft | 29 kts | 199° |
| 2026-05-06 03:19 | 42.35814 | -71.00933 | 26 ft | 16 kts | 277° |
| 2026-05-06 03:19 | 42.35829 | -71.01086 | 26 ft | 17 kts | 277° |
| 2026-05-06 03:19 | 42.35844 | -71.01244 | 26 ft | 17 kts | 278° |
| 2026-05-06 03:20 | 42.35885 | -71.01561 | 26 ft | 17 kts | 282° |
| 2026-05-06 03:20 | 42.35907 | -71.01721 | 28 ft | 17 kts | 282° |
| 2026-05-06 03:20 | 42.35945 | -71.01876 | 28 ft | 18 kts | 297° |
| 2026-05-06 03:21 | 42.36006 | -71.02019 | 30 ft | 17 kts | 302° |
| 2026-05-06 03:21 | 42.36068 | -71.02157 | 27 ft | 17 kts | 300° |
| 2026-05-06 03:21 | 42.36146 | -71.02274 | 26 ft | 16 kts | 342° |
| 2026-05-06 03:21 | 42.36250 | -71.02250 | 26 ft | 15 kts | 18° |
| 2026-05-06 03:22 | 42.36335 | -71.02289 | 28 ft | 13 kts | 316° |
| 2026-05-06 03:22 | 42.36409 | -71.02351 | 26 ft | 12 kts | 337° |
| 2026-05-06 03:22 | 42.36486 | -71.02372 | 26 ft | 7 kts | 357° |
| 2026-05-06 03:22 | 42.36505 | -71.02376 | 28 ft | 1 kts | 329° |
| 2026-05-06 03:23 | 42.36508 | -71.02398 | 27 ft | 4 kts | 276° |
| 2026-05-06 03:23 | 42.36503 | -71.02432 | 26 ft | 2 kts | 255° |
| 2026-05-06 03:23 | 42.36501 | -71.02440 | 27 ft | 0 kts | 255° |
| 2026-05-06 03:26 | 42.36501 | -71.02439 | 26 ft | 0 kts | 255° |
| 2026-05-06 03:34 | 42.36501 | -71.02438 | 26 ft | 0 kts | 255° |